createdAt,value
2022-11-28T00:01:45.329Z,1.88
2022-11-28T00:04:13.417Z,1.88
2022-11-28T00:06:45.428Z,2.03
2022-11-28T00:09:13.214Z,2.13
2022-11-28T00:14:08.602Z,1.85
2022-11-28T00:21:31.444Z,1.90
2022-11-28T00:23:59.305Z,1.92
2022-11-28T00:26:34.567Z,1.67
2022-11-28T00:29:03.154Z,1.80
2022-11-28T00:31:33.223Z,1.63
2022-11-28T00:34:01.715Z,1.70
2022-11-28T00:36:30.063Z,2.03
2022-11-28T00:38:56.844Z,1.95
2022-11-28T00:41:28.368Z,1.38
2022-11-28T00:43:55.645Z,2.00
2022-11-28T00:46:23.818Z,2.28
2022-11-28T00:48:51.385Z,2.17
2022-11-28T00:53:51.214Z,2.17
2022-11-28T00:56:20.735Z,1.90
2022-11-28T00:58:49.541Z,2.05
2022-11-28T01:01:17.896Z,1.95
2022-11-28T01:03:45.223Z,1.85
2022-11-28T01:06:12.895Z,2.58
2022-11-28T01:08:39.700Z,2.00
2022-11-28T01:11:12.373Z,1.98
2022-11-28T01:13:40.186Z,2.35
2022-11-28T01:16:08.329Z,2.05
2022-11-28T01:18:35.177Z,2.70
2022-11-28T01:21:02.024Z,2.58
2022-11-28T01:23:28.803Z,2.45
2022-11-28T01:25:55.560Z,2.72
2022-11-28T01:28:22.552Z,2.47
2022-11-28T01:30:49.515Z,2.60
2022-11-28T01:33:16.258Z,1.75
2022-11-28T01:35:43.014Z,1.60
2022-11-28T01:38:09.779Z,2.65
2022-11-28T01:40:36.568Z,2.20
2022-11-28T01:43:03.398Z,1.98
2022-11-28T01:45:33.418Z,2.53
2022-11-28T01:48:02.941Z,2.63
2022-11-28T01:50:33.041Z,2.40
2022-11-28T01:53:04.626Z,2.22
2022-11-28T01:55:35.253Z,2.28
2022-11-28T01:58:02.011Z,2.40
2022-11-28T02:00:28.860Z,2.33
2022-11-28T02:03:09.111Z,2.72
2022-11-28T02:05:36.242Z,2.60
2022-11-28T02:08:03.643Z,2.60
2022-11-28T02:10:40.643Z,2.25
2022-11-28T02:13:28.741Z,2.90
2022-11-28T02:16:36.492Z,2.45
2022-11-28T02:19:18.863Z,3.15
2022-11-28T02:22:08.417Z,3.08
2022-11-28T02:24:56.184Z,2.88
2022-11-28T02:27:54.195Z,3.42
2022-11-28T02:30:30.350Z,3.15
2022-11-28T02:33:09.044Z,2.88
2022-11-28T02:35:53.464Z,2.40
2022-11-28T02:38:39.105Z,2.90
2022-11-28T02:41:30.662Z,3.45
2022-11-28T02:44:11.540Z,2.70
2022-11-28T02:47:05.663Z,3.05
2022-11-28T02:49:43.281Z,3.30
2022-11-28T02:52:15.265Z,3.05
2022-11-28T02:54:43.535Z,3.03
2022-11-28T02:57:10.802Z,3.40
2022-11-28T02:59:37.515Z,3.13
2022-11-28T03:02:15.204Z,2.67
2022-11-28T03:05:09.475Z,2.85
2022-11-28T03:08:10.525Z,3.10
2022-11-28T03:10:42.857Z,2.97
2022-11-28T03:13:30.253Z,3.00
2022-11-28T03:16:06.056Z,2.92
2022-11-28T03:18:42.261Z,2.85
2022-11-28T03:21:08.964Z,2.90
2022-11-28T03:23:44.746Z,2.85
2022-11-28T03:26:29.544Z,3.30
2022-11-28T03:29:03.775Z,2.83
2022-11-28T03:31:38.834Z,2.83
2022-11-28T03:34:11.941Z,2.47
2022-11-28T03:36:47.273Z,3.20
2022-11-28T03:39:19.383Z,3.60
2022-11-28T03:41:53.944Z,2.72
2022-11-28T03:44:28.925Z,3.30
2022-11-28T03:46:58.668Z,2.90
2022-11-28T03:49:30.581Z,3.08
2022-11-28T03:52:02.569Z,3.03
2022-11-28T03:54:43.043Z,2.55
2022-11-28T03:57:21.122Z,3.20
2022-11-28T03:59:51.085Z,2.95
2022-11-28T04:02:44.078Z,2.80
2022-11-28T04:05:22.534Z,3.17
2022-11-28T04:08:11.182Z,2.72
2022-11-28T04:10:52.290Z,2.58
2022-11-28T04:13:26.384Z,3.17
2022-11-28T04:16:18.764Z,3.05
2022-11-28T04:19:01.527Z,2.75
2022-11-28T04:21:49.821Z,2.90
2022-11-28T04:24:23.809Z,2.47
2022-11-28T04:27:00.217Z,2.58
2022-11-28T04:29:31.783Z,2.80
2022-11-28T04:32:00.791Z,2.95
2022-11-28T04:34:29.577Z,3.22
2022-11-28T04:37:00.007Z,2.45
2022-11-28T04:39:28.584Z,3.30
2022-11-28T04:42:02.487Z,3.05
2022-11-28T04:44:51.332Z,2.72
2022-11-28T04:47:18.619Z,2.70
2022-11-28T04:49:45.773Z,2.97
2022-11-28T04:52:40.682Z,2.72
2022-11-28T04:55:33.247Z,2.83
2022-11-28T04:58:27.853Z,2.50
2022-11-28T05:00:56.085Z,2.95
2022-11-28T05:03:28.071Z,2.20
2022-11-28T05:05:54.865Z,2.47
2022-11-28T05:08:21.705Z,2.22
2022-11-28T05:10:49.158Z,1.98
2022-11-28T05:15:42.890Z,2.85
2022-11-28T05:18:09.689Z,2.17
2022-11-28T05:20:38.028Z,2.85
2022-11-28T05:23:04.849Z,2.83
2022-11-28T05:25:31.609Z,2.80
2022-11-28T05:27:58.348Z,2.53
2022-11-28T05:30:25.120Z,3.08
2022-11-28T05:32:51.967Z,1.70
2022-11-28T05:35:18.677Z,2.42
2022-11-28T05:37:45.420Z,2.17
2022-11-28T05:40:12.351Z,2.25
2022-11-28T05:42:39.154Z,2.58
2022-11-28T05:45:06.304Z,2.47
2022-11-28T05:47:33.769Z,2.53
2022-11-28T05:50:01.124Z,2.10
2022-11-28T05:52:29.702Z,2.53
2022-11-28T05:54:56.549Z,2.55
2022-11-28T05:57:23.348Z,2.83
2022-11-28T05:59:50.077Z,2.72
2022-11-28T06:02:16.916Z,2.33
2022-11-28T06:04:43.848Z,1.80
2022-11-28T06:07:10.631Z,2.45
2022-11-28T06:09:37.372Z,2.50
2022-11-28T06:12:04.784Z,2.05
2022-11-28T06:16:59.346Z,2.15
2022-11-28T06:19:26.276Z,1.88
2022-11-28T06:21:53.167Z,1.83
2022-11-28T06:24:19.967Z,2.85
2022-11-28T06:26:46.695Z,1.52
2022-11-28T06:29:13.460Z,2.30
2022-11-28T06:31:40.316Z,2.38
2022-11-28T06:34:07.162Z,1.85
2022-11-28T06:36:35.063Z,2.47
2022-11-28T06:39:01.935Z,2.28
2022-11-28T06:41:28.741Z,2.40
2022-11-28T06:43:57.868Z,2.13
2022-11-28T06:46:24.776Z,2.70
2022-11-28T06:48:52.883Z,2.40
2022-11-28T06:51:20.148Z,2.70
2022-11-28T06:53:47.135Z,2.45
2022-11-28T06:56:16.627Z,2.03
2022-11-28T06:58:44.418Z,2.72
2022-11-28T07:01:17.099Z,2.63
2022-11-28T07:03:44.643Z,2.97
2022-11-28T07:08:39.019Z,2.30
2022-11-28T07:11:11.742Z,2.10
2022-11-28T07:13:39.441Z,3.00
2022-11-28T07:16:07.241Z,2.47
2022-11-28T07:18:34.737Z,2.63
2022-11-28T07:23:28.352Z,2.55
2022-11-28T07:26:00.114Z,3.03
2022-11-28T07:28:28.107Z,2.40
2022-11-28T07:31:10.680Z,3.00
2022-11-28T07:33:39.047Z,2.72
2022-11-28T07:36:09.839Z,2.95
2022-11-28T07:38:36.615Z,2.58
2022-11-28T07:41:05.375Z,2.92
2022-11-28T07:43:32.164Z,3.08
2022-11-28T07:46:01.292Z,2.47
2022-11-28T07:48:28.435Z,2.72
2022-11-28T07:50:55.215Z,2.75
2022-11-28T07:53:22.037Z,2.53
2022-11-28T07:55:48.794Z,1.77
2022-11-28T07:58:15.549Z,3.92
2022-11-28T08:00:42.375Z,2.85
2022-11-28T08:03:09.252Z,2.50
2022-11-28T08:05:36.032Z,2.45
2022-11-28T08:08:02.931Z,2.25
2022-11-28T08:10:29.764Z,2.90
2022-11-28T08:12:56.543Z,2.28
2022-11-28T08:15:23.333Z,2.38
2022-11-28T08:17:50.061Z,2.63
2022-11-28T08:20:16.886Z,3.20
2022-11-28T08:22:43.727Z,2.80
2022-11-28T08:25:10.706Z,2.88
2022-11-28T08:27:37.561Z,2.10
2022-11-28T08:30:04.882Z,2.80
2022-11-28T08:32:31.658Z,2.90
2022-11-28T08:34:58.473Z,2.63
2022-11-28T08:37:26.410Z,2.95
2022-11-28T08:39:53.159Z,2.70
2022-11-28T08:42:20.050Z,2.60
2022-11-28T08:44:47.093Z,2.13
2022-11-28T08:47:14.002Z,2.70
2022-11-28T08:49:41.084Z,3.10
2022-11-28T08:52:07.976Z,2.50
2022-11-28T08:54:34.750Z,2.08
2022-11-28T08:57:02.008Z,1.85
2022-11-28T08:59:28.759Z,2.30
2022-11-28T09:01:55.549Z,2.88
2022-11-28T09:04:23.644Z,2.75
2022-11-28T09:06:50.990Z,2.58
2022-11-28T09:09:18.034Z,2.97
2022-11-28T09:11:44.905Z,3.15
2022-11-28T09:14:12.028Z,2.90
2022-11-28T09:16:40.362Z,3.08
2022-11-28T09:19:09.099Z,2.75
2022-11-28T09:21:36.198Z,2.80
2022-11-28T09:24:03.122Z,2.80
2022-11-28T09:26:30.021Z,1.95
2022-11-28T09:28:56.780Z,3.00
2022-11-28T09:31:23.666Z,1.77
2022-11-28T09:33:50.896Z,2.10
2022-11-28T09:36:23.582Z,2.30
2022-11-28T09:38:51.109Z,2.70
2022-11-28T09:44:00.456Z,2.97
2022-11-28T09:46:34.299Z,2.20
2022-11-28T09:49:04.623Z,3.10
2022-11-28T09:51:42.060Z,2.30
2022-11-28T09:54:19.463Z,2.35
2022-11-28T09:56:48.845Z,2.67
2022-11-28T09:59:27.189Z,2.72
2022-11-28T10:02:24.468Z,2.75
2022-11-28T10:05:02.315Z,2.13
2022-11-28T10:08:06.864Z,2.33
2022-11-28T10:10:54.064Z,2.60
2022-11-28T10:16:29.190Z,2.70
2022-11-28T10:19:00.511Z,2.47
2022-11-28T10:21:36.184Z,2.85
2022-11-28T10:24:39.275Z,2.67
2022-11-28T10:27:06.689Z,2.40
2022-11-28T10:29:48.806Z,2.85
2022-11-28T10:32:20.172Z,2.85
2022-11-28T10:35:04.743Z,2.30
2022-11-28T10:37:35.022Z,2.15
2022-11-28T10:40:27.356Z,2.85
2022-11-28T10:43:04.303Z,2.28
2022-11-28T10:46:14.237Z,2.53
2022-11-28T10:48:45.428Z,2.90
2022-11-28T10:51:28.924Z,2.60
2022-11-28T10:54:14.708Z,2.30
2022-11-28T10:57:03.250Z,2.72
2022-11-28T11:00:01.777Z,2.65
2022-11-28T11:02:54.910Z,2.58
2022-11-28T11:05:26.938Z,3.00
2022-11-28T11:08:02.445Z,2.85
2022-11-28T11:10:51.626Z,2.45
2022-11-28T11:13:19.338Z,2.67
2022-11-28T11:15:49.421Z,2.83
2022-11-28T11:18:25.758Z,2.83
2022-11-28T11:21:07.000Z,3.00
2022-11-28T11:23:38.036Z,3.22
2022-11-28T11:26:10.090Z,3.03
2022-11-28T11:28:42.474Z,2.63
2022-11-28T11:31:33.464Z,2.95
2022-11-28T11:34:06.546Z,2.80
2022-11-28T11:36:36.304Z,3.13
2022-11-28T11:39:12.250Z,3.35
2022-11-28T11:41:40.278Z,2.67
2022-11-28T11:44:18.999Z,3.30
2022-11-28T11:47:06.279Z,2.67
2022-11-28T11:49:34.566Z,2.72
2022-11-28T11:52:23.277Z,3.03
2022-11-28T11:55:15.151Z,2.70
2022-11-28T11:57:52.539Z,3.03
2022-11-28T12:00:22.325Z,2.97
2022-11-28T12:03:03.070Z,2.65
2022-11-28T12:05:58.970Z,3.38
2022-11-28T12:08:39.419Z,3.60
2022-11-28T12:11:21.055Z,3.10
2022-11-28T12:13:49.340Z,3.13
2022-11-28T12:16:51.161Z,3.00
2022-11-28T12:19:43.535Z,3.38
2022-11-28T12:22:46.094Z,3.35
2022-11-28T12:25:31.778Z,3.72
2022-11-28T12:28:15.458Z,3.17
2022-11-28T12:31:12.848Z,3.10
2022-11-28T12:34:01.109Z,2.90
2022-11-28T12:36:50.432Z,2.85
2022-11-28T12:39:46.434Z,2.97
2022-11-28T12:42:36.294Z,3.37
2022-11-28T12:45:14.746Z,2.70
2022-11-28T12:48:12.824Z,3.00
2022-11-28T12:50:43.712Z,3.00
2022-11-28T12:53:31.901Z,2.30
2022-11-28T12:56:07.848Z,2.40
2022-11-28T12:58:48.219Z,2.38
2022-11-28T13:01:48.909Z,2.38
2022-11-28T13:04:29.067Z,2.75
2022-11-28T13:07:31.406Z,2.20
2022-11-28T13:10:12.857Z,2.63
2022-11-28T13:13:05.341Z,2.20
2022-11-28T13:15:51.261Z,2.60
2022-11-28T13:18:39.935Z,2.35
2022-11-28T13:21:28.258Z,2.70
2022-11-28T13:24:21.631Z,2.83
2022-11-28T13:27:24.183Z,2.75
2022-11-28T13:30:09.373Z,2.60
2022-11-28T13:32:40.656Z,2.38
2022-11-28T13:35:12.896Z,2.33
2022-11-28T13:41:02.741Z,2.70
2022-11-28T13:43:35.211Z,2.63
2022-11-28T13:46:02.541Z,2.40
2022-11-28T13:48:57.924Z,2.67
2022-11-28T13:51:30.882Z,2.45
2022-11-28T13:54:17.349Z,2.85
2022-11-28T13:57:05.244Z,2.97
2022-11-28T13:59:33.145Z,2.92
2022-11-28T14:02:03.176Z,2.08
2022-11-28T14:04:31.940Z,2.35
2022-11-28T14:07:04.050Z,2.38
2022-11-28T14:09:44.523Z,3.00
2022-11-28T14:12:22.449Z,2.13
2022-11-28T14:15:00.888Z,2.55
2022-11-28T14:17:59.412Z,2.35
2022-11-28T14:20:44.835Z,2.33
2022-11-28T14:23:47.333Z,2.08
2022-11-28T14:26:29.886Z,2.35
2022-11-28T14:28:56.971Z,1.83
2022-11-28T14:31:38.777Z,2.25
2022-11-28T14:34:31.066Z,2.42
2022-11-28T14:37:19.617Z,2.47
2022-11-28T14:39:51.908Z,2.35
2022-11-28T14:45:44.614Z,2.08
2022-11-28T14:48:23.786Z,1.77
2022-11-28T14:51:00.802Z,2.22
2022-11-28T14:53:46.657Z,1.60
2022-11-28T14:56:16.277Z,2.03
2022-11-28T14:58:50.951Z,2.33
2022-11-28T15:01:55.693Z,2.00
2022-11-28T15:04:35.211Z,2.30
2022-11-28T15:07:04.131Z,2.30
2022-11-28T15:09:42.585Z,2.10
2022-11-28T15:12:32.947Z,2.03
2022-11-28T15:15:00.057Z,1.70
2022-11-28T15:17:33.302Z,1.90
2022-11-28T15:20:08.924Z,1.98
2022-11-28T15:22:41.789Z,2.08
2022-11-28T15:25:22.827Z,2.13
2022-11-28T15:27:50.804Z,1.65
2022-11-28T15:30:26.579Z,2.03
2022-11-28T15:32:58.605Z,1.77
2022-11-28T15:35:26.332Z,2.03
2022-11-28T15:37:57.898Z,1.70
2022-11-28T15:40:36.066Z,1.85
2022-11-28T15:43:09.557Z,2.15
2022-11-28T15:45:42.116Z,2.17
2022-11-28T15:48:27.035Z,1.80
2022-11-28T15:50:54.773Z,1.90
2022-11-28T15:53:22.139Z,2.17
2022-11-28T15:56:07.606Z,2.00
2022-11-28T15:58:37.807Z,2.10
2022-11-28T16:03:52.663Z,1.90
2022-11-28T16:06:21.402Z,2.20
2022-11-28T16:08:53.112Z,2.13
2022-11-28T16:11:23.279Z,2.05
2022-11-28T16:13:52.105Z,1.80
2022-11-28T16:16:24.056Z,1.85
2022-11-28T16:19:00.557Z,1.80
2022-11-28T16:21:43.106Z,1.80
2022-11-28T16:24:35.335Z,1.58
2022-11-28T16:27:06.019Z,2.08
2022-11-28T16:29:35.727Z,2.33
2022-11-28T16:32:30.277Z,2.00
2022-11-28T16:35:00.150Z,2.38
2022-11-28T16:37:29.392Z,2.33
2022-11-28T16:40:16.944Z,2.10
2022-11-28T16:42:54.940Z,2.20
2022-11-28T16:45:24.855Z,2.15
2022-11-28T16:48:00.444Z,2.40
2022-11-28T16:50:27.683Z,2.40
2022-11-28T16:52:55.703Z,2.40
2022-11-28T16:55:32.208Z,2.28
2022-11-28T16:58:10.141Z,2.00
2022-11-28T17:00:39.474Z,2.13
2022-11-28T17:03:11.599Z,2.03
2022-11-28T17:05:39.668Z,2.13
2022-11-28T17:08:08.074Z,2.38
2022-11-28T17:10:34.894Z,2.22
2022-11-28T17:13:01.622Z,1.30
2022-11-28T17:15:28.383Z,2.22
2022-11-28T17:17:57.114Z,2.20
2022-11-28T17:20:23.869Z,2.80
2022-11-28T17:22:51.164Z,2.45
2022-11-28T17:25:20.418Z,2.72
2022-11-28T17:27:48.102Z,2.67
2022-11-28T17:30:19.314Z,2.13
2022-11-28T17:32:49.127Z,2.20
2022-11-28T17:35:22.790Z,2.13
2022-11-28T17:37:49.559Z,2.20
2022-11-28T17:40:36.324Z,2.28
2022-11-28T17:43:03.543Z,2.28
2022-11-28T17:45:33.866Z,2.58
2022-11-28T17:48:00.810Z,2.78
2022-11-28T17:50:28.527Z,2.63
2022-11-28T17:57:49.122Z,3.00
2022-11-28T18:00:16.804Z,3.20
2022-11-28T18:02:44.727Z,3.40
2022-11-28T18:05:11.875Z,2.53
2022-11-28T18:07:40.429Z,2.65
2022-11-28T18:10:11.077Z,3.20
2022-11-28T18:12:39.353Z,3.15
2022-11-28T18:15:07.813Z,2.83
2022-11-28T18:17:34.612Z,3.55
2022-11-28T18:22:29.092Z,3.88
2022-11-28T18:24:55.906Z,3.72
2022-11-28T18:27:22.766Z,4.07
2022-11-28T18:29:49.592Z,3.88
2022-11-28T18:32:16.761Z,3.95
2022-11-28T18:34:43.521Z,3.00
2022-11-28T18:37:10.675Z,3.08
2022-11-28T18:39:37.676Z,4.00
2022-11-28T18:42:04.919Z,3.45
2022-11-28T18:44:31.937Z,4.40
2022-11-28T18:46:58.821Z,4.35
2022-11-28T18:49:25.706Z,3.90
2022-11-28T18:51:54.786Z,4.47
2022-11-28T18:54:21.820Z,4.05
2022-11-28T18:56:49.157Z,4.20
2022-11-28T18:59:16.541Z,4.70
2022-11-28T19:01:43.374Z,4.28
2022-11-28T19:04:12.420Z,5.10
2022-11-28T19:06:40.812Z,5.35
2022-11-28T19:09:13.685Z,4.97
2022-11-28T19:11:41.746Z,5.38
2022-11-28T19:14:10.935Z,4.60
2022-11-28T19:16:39.071Z,5.20
2022-11-28T19:19:06.419Z,5.35
2022-11-28T19:21:35.735Z,5.10
2022-11-28T19:24:03.160Z,4.68
2022-11-28T19:26:33.334Z,4.90
2022-11-28T19:29:01.092Z,5.45
2022-11-28T19:34:01.186Z,5.35
2022-11-28T19:36:33.770Z,5.07
2022-11-28T19:39:00.961Z,5.25
2022-11-28T19:41:29.035Z,5.30
2022-11-28T19:43:56.307Z,6.00
2022-11-28T19:46:23.182Z,5.32
2022-11-28T19:48:51.620Z,5.30
2022-11-28T19:51:20.328Z,5.40
2022-11-28T19:53:47.088Z,5.55
2022-11-28T19:56:17.626Z,3.80
2022-11-28T19:58:45.040Z,5.05
2022-11-28T20:01:19.852Z,5.45
2022-11-28T20:03:49.166Z,5.55
2022-11-28T20:06:19.150Z,4.75
2022-11-28T20:08:47.831Z,5.95
2022-11-28T20:11:17.993Z,5.55
2022-11-28T20:13:45.958Z,5.60
2022-11-28T20:16:15.369Z,5.90
2022-11-28T20:18:44.791Z,5.40
2022-11-28T20:21:18.055Z,5.47
2022-11-28T20:23:47.996Z,5.13
2022-11-28T20:26:16.875Z,5.60
2022-11-28T20:28:44.718Z,5.03
2022-11-28T20:31:30.166Z,5.28
2022-11-28T20:33:58.394Z,4.40
2022-11-28T20:36:26.680Z,5.25
2022-11-28T20:38:54.695Z,4.68
2022-11-28T20:41:24.310Z,4.75
2022-11-28T20:43:51.629Z,5.45
2022-11-28T20:46:23.898Z,5.32
2022-11-28T20:48:50.994Z,5.93
2022-11-28T20:51:24.628Z,4.93
2022-11-28T20:53:52.889Z,5.40
2022-11-28T20:56:23.196Z,5.40
2022-11-28T20:58:51.165Z,5.75
2022-11-28T21:01:23.694Z,5.30
2022-11-28T21:03:50.970Z,4.78
2022-11-28T21:06:18.396Z,4.57
2022-11-28T21:11:30.648Z,4.88
2022-11-28T21:14:02.099Z,4.82
2022-11-28T21:19:04.991Z,5.03
2022-11-28T21:21:33.347Z,4.95
2022-11-28T21:24:03.013Z,5.72
2022-11-28T21:26:33.935Z,5.38
2022-11-28T21:29:05.920Z,4.80
2022-11-28T21:31:36.251Z,5.80
2022-11-28T21:34:03.613Z,4.70
2022-11-28T21:36:31.188Z,5.25
2022-11-28T21:39:00.152Z,5.05
2022-11-28T21:41:30.002Z,5.13
2022-11-28T21:43:58.750Z,5.05
2022-11-28T21:46:26.477Z,5.50
2022-11-28T21:48:53.640Z,4.85
2022-11-28T21:51:23.739Z,5.75
2022-11-28T21:53:51.089Z,5.13
2022-11-28T21:56:18.086Z,5.45
2022-11-28T21:58:45.017Z,5.75
2022-11-28T22:01:14.437Z,5.53
2022-11-28T22:03:43.667Z,4.85
2022-11-28T22:06:16.042Z,6.78
2022-11-28T22:08:43.355Z,6.00
2022-11-28T22:11:13.102Z,6.53
2022-11-28T22:13:42.484Z,6.43
2022-11-28T22:16:12.149Z,5.88
2022-11-28T22:18:39.035Z,5.53
2022-11-28T22:21:28.609Z,6.45
2022-11-28T22:23:58.014Z,6.13
2022-11-28T22:26:24.889Z,6.57
2022-11-28T22:28:53.848Z,6.30
2022-11-28T22:31:23.098Z,6.35
2022-11-28T22:33:50.655Z,6.28
2022-11-28T22:36:19.806Z,7.10
2022-11-28T22:38:47.461Z,5.82
2022-11-28T22:43:43.250Z,6.25
2022-11-28T22:46:11.433Z,6.32
2022-11-28T22:48:39.423Z,5.85
2022-11-28T22:53:34.977Z,5.63
2022-11-28T22:58:43.354Z,5.97
2022-11-28T23:01:17.294Z,6.05
2022-11-28T23:03:45.079Z,6.28
2022-11-28T23:06:24.078Z,5.80
2022-11-28T23:08:55.622Z,6.03
2022-11-28T23:11:26.261Z,5.65
2022-11-28T23:13:53.513Z,5.53
2022-11-28T23:16:32.515Z,5.32
2022-11-28T23:19:02.195Z,5.00
2022-11-28T23:21:35.058Z,4.68
2022-11-28T23:24:02.776Z,6.13
2022-11-28T23:26:31.415Z,4.57
2022-11-28T23:29:00.408Z,4.53
2022-11-28T23:31:30.608Z,5.20
2022-11-28T23:33:58.333Z,4.57
2022-11-28T23:36:43.117Z,5.63
2022-11-28T23:39:13.937Z,5.57
2022-11-28T23:41:41.568Z,5.38
2022-11-28T23:44:10.624Z,5.70
2022-11-28T23:46:38.031Z,5.82
2022-11-28T23:51:33.006Z,6.05
2022-11-28T23:54:00.108Z,6.18
2022-11-28T23:56:29.162Z,6.35
2022-11-28T23:58:57.280Z,5.88
